Warning: Javascript must be enabled to use all the features on this page!


Page Loading - Please Wait...

* We've detected you're using a mobile device. Find our Next Generation Station Page here.
Click to hideNews Bulletins

Peak Streamflow for the Nation

USGS 13161500 BRUNEAU RV AT ROWLAND, NV

Elko County, Nevada
Hydrologic Unit Code 17050102
Latitude  41°56'00", Longitude 115°40'25" NAD27
Drainage area 382  square miles
Gage datum 4,500.00 feet above NGVD29
Output formats
Table
Graph
Tab-separated file
peakfq (watstore) format
Reselect output format
Water
Year
Date Gage
Height
(feet)
Stream-
flow
(cfs)
1913 1913-06-11 3.70 3831,5
1914 1914-04-17 5.80 9721,2,5
1915 1915-05-20 3.25 2835
1916 1916-04-11 5.10 1,0005
1917 1917-05-14 7.005 1,4405
1918 1918-04-12 2.42 3045
1962 1962-02-11 13.006 2,1205
1963 1963-06-04 11.70 1,2705
1964 1964-04-17 10.80 6005
1965 1965-04-17 11.50 8865
1966 1966-04-03 13.37 5005
1967 1967-05-10 5.056 4265
1968 1968-06-07 4.70 3325
1969 1969-04-22 7.52 1,1405
1970 1970-05-18 6.70 8285
1971 1971-05-05 8.09 1,2405
1972 1972-03-14 6.70 9055
1973 1973-04-13 5.54 5825
1974 1974-04-24 6.18 7015
1975 1975-05-17 10.00 2,1005
1976 1976-04-07 5.73 6125
1977 1977-04-08 4.39 2985
1978 1978-03-31 5.78 6305
1979 1979-05-24 5.98 6615
1980 1980-04-21 6.47 8325
1981 1981-04-27 3.75 1605
1982 1982-04-13 7.36 1,1405
1983 1983-04-24 9.07 1,7505
1984 1984-05-14 12.01 2,1405
1985 1985-04-08 6.75 9335
1986 1986-03-08 7.29 1,2005
1987 1987-05-20 4.09 2815
1988 1988-03-27 4.05 2525
1989 1989-04-09 6.46 8875
1990 1990-05-31 3.74 1885
1991 1991-05-25 4.02 2395
1992 1992-05-09 3.02 78.05
1993 1993-03-27 7.53R 1,1205,R
1994 1994-05-12 4.45 3215
1995 1995-06-03 6.80 8525
1996 1996-05-20   7011,2,5
1997 1997-05-16   7001,2,5
1998 1998-05-16 6.72 9405
1999 1999-05-30 5.64 6345
2000 2000-04-04 5.05 4925
2001 2001-04-28 3.94 2325
2002 2002-04-06 5.80 6845
2003 2003-05-10 4.48 3325
2004 2004-03-24 5.72 6595
2005 2005-05-17 9.95 1,6205
2006 2006-04-16 9.69 1,4305
2007 2007-04-08 4.03 2035
2008 2008-05-19 5.58 5365
2009 2009-04-23 5.89 6085
2010 2010-04-21 5.75 5805
2011 2011-04-18 9.36 1,5505
2012 2012-03-17 4.88 3905
2013 2013-04-02 4.18 2365
2014 2014-08-09 3.58 1365
2015 2015-05-24 5.94 6175
2016 2016-05-09 5.882 5865
2017 2017-03-22 9.62 1,4605
2018 2018-03-22 5.97 6185
2019 2019-04-09 8.72 9475
2020 2020-05-01 5.76 5465
?
  Peak Gage-Height Qualification Codes.
?
  Peak Streamflow Qualification Codes.